Time;durP1;ratioP1;P1;durP2;ratioP2;P2;SDS_P1;SDS_P2;PMS_P1;PMS_P2;Temp;Humidity;BMP_temperature;BMP_pressure;BME280_temperature;BME280_humidity;BME280_pressure;Samples;Min_cycle;Max_cycle;Signal;HPM_P1;HPM_P2
2023/08/26 00:00:17;;;;;;;2.90;2.60;;;23.30;85.80;;;;;;6140820;23;20398;-67
2023/08/26 00:02:49;;;;;;;3.80;2.10;;;23.30;84.60;;;;;;6142194;23;20777;-67
2023/08/26 00:05:17;;;;;;;3.53;2.80;;;23.30;85.50;;;;;;6140782;23;20477;-67
2023/08/26 00:07:45;;;;;;;2.50;2.30;;;23.30;85.30;;;;;;6141623;23;20480;-68
2023/08/26 00:10:14;;;;;;;3.13;2.57;;;23.30;85.10;;;;;;6141217;23;20398;-68
2023/08/26 00:12:42;;;;;;;2.77;2.57;;;23.30;84.70;;;;;;6141000;23;20896;-67
2023/08/26 00:15:10;;;;;;;2.70;2.00;;;23.30;84.80;;;;;;6140349;23;20426;-67
2023/08/26 00:17:42;;;;;;;2.60;2.33;;;23.30;84.80;;;;;;6143267;23;20412;-68
2023/08/26 00:20:12;;;;;;;2.60;2.20;;;23.30;85.00;;;;;;6192786;22;20516;-68
2023/08/26 00:22:40;;;;;;;2.57;2.37;;;23.30;84.00;;;;;;6142012;23;20482;-67
2023/08/26 00:25:09;;;;;;;2.50;2.30;;;23.30;84.00;;;;;;6140492;23;20713;-68
2023/08/26 00:27:37;;;;;;;2.53;2.13;;;23.20;84.40;;;;;;6141461;23;20737;-67
2023/08/26 00:30:07;;;;;;;2.33;2.13;;;23.30;84.20;;;;;;6116125;23;20414;-67
2023/08/26 00:32:35;;;;;;;2.03;1.87;;;23.30;84.20;;;;;;6141499;23;20468;-67
2023/08/26 00:35:04;;;;;;;2.57;2.37;;;23.20;83.90;;;;;;6139534;23;20442;-67
2023/08/26 00:37:34;;;;;;;2.47;2.27;;;23.20;83.10;;;;;;6141415;23;20875;-68
2023/08/26 00:40:02;;;;;;;3.33;2.50;;;23.20;83.30;;;;;;6140387;23;20483;-68
2023/08/26 00:42:36;;;;;;;2.10;1.90;;;23.20;82.50;;;;;;6140767;23;20410;-68
2023/08/26 00:45:06;;;;;;;2.30;2.10;;;23.20;82.20;;;;;;6139760;23;20597;-68
2023/08/26 00:47:36;;;;;;;2.80;2.10;;;23.20;80.80;;;;;;6140862;23;20915;-67
2023/08/26 00:50:07;;;;;;;2.83;2.10;;;23.20;81.00;;;;;;6139382;23;20446;-67
2023/08/26 00:52:38;;;;;;;2.20;2.00;;;23.20;81.70;;;;;;6141097;23;20405;-67
2023/08/26 00:55:10;;;;;;;2.27;2.07;;;23.20;81.70;;;;;;6139997;23;20476;-68
2023/08/26 00:57:40;;;;;;;2.10;1.83;;;23.20;81.00;;;;;;6140096;23;20409;-67
2023/08/26 01:00:09;;;;;;;3.27;2.57;;;23.20;80.50;;;;;;6141218;23;20410;-67
2023/08/26 01:02:38;;;;;;;2.10;1.90;;;23.20;81.70;;;;;;6141015;23;20394;-68
2023/08/26 01:05:07;;;;;;;3.30;2.63;;;23.10;81.60;;;;;;6139192;23;20905;-67
2023/08/26 01:07:37;;;;;;;2.23;1.77;;;23.20;82.00;;;;;;6141561;23;20409;-67
2023/08/26 01:10:06;;;;;;;2.73;2.20;;;23.20;81.70;;;;;;6141951;22;20410;-67
2023/08/26 01:12:44;;;;;;;2.80;2.60;;;23.10;80.60;;;;;;6141183;23;20459;-68
2023/08/26 01:15:14;;;;;;;2.53;2.33;;;23.10;81.00;;;;;;6139388;23;20934;-67
2023/08/26 01:17:42;;;;;;;3.50;2.50;;;23.10;81.20;;;;;;6141584;23;20507;-67
2023/08/26 01:20:14;;;;;;;2.73;1.97;;;23.10;80.90;;;;;;6140573;23;20412;-68
2023/08/26 01:22:46;;;;;;;3.30;2.83;;;23.10;81.40;;;;;;6141222;23;20714;-67
2023/08/26 01:25:17;;;;;;;2.97;2.60;;;23.10;81.60;;;;;;6160820;23;20413;-67
2023/08/26 01:27:46;;;;;;;2.93;2.60;;;23.10;81.50;;;;;;6112398;23;20405;-67
2023/08/26 01:30:14;;;;;;;3.10;2.37;;;23.10;81.30;;;;;;6111552;23;20480;-68
2023/08/26 01:32:49;;;;;;;3.73;2.90;;;23.10;81.40;;;;;;6111691;23;20399;-67
2023/08/26 01:35:23;;;;;;;2.87;2.37;;;23.10;81.60;;;;;;6112249;23;20434;-67
2023/08/26 01:37:53;;;;;;;3.57;2.03;;;23.10;81.60;;;;;;6111528;23;20422;-67
2023/08/26 01:40:25;;;;;;;2.43;2.00;;;23.10;81.50;;;;;;6112015;23;20576;-67
2023/08/26 01:42:55;;;;;;;2.17;1.90;;;23.10;81.00;;;;;;6111382;22;20375;-68
2023/08/26 01:45:23;;;;;;;3.17;2.20;;;23.10;80.90;;;;;;6111343;23;20477;-68
2023/08/26 01:47:52;;;;;;;3.60;2.50;;;23.10;81.00;;;;;;6111509;23;20931;-68
2023/08/26 01:50:20;;;;;;;3.23;2.13;;;23.10;81.20;;;;;;6110164;23;20449;-68
2023/08/26 01:52:49;;;;;;;2.43;2.20;;;23.10;81.20;;;;;;6110337;23;20753;-67
2023/08/26 01:55:17;;;;;;;2.50;2.23;;;23.10;80.80;;;;;;6111127;23;20431;-68
2023/08/26 01:57:47;;;;;;;2.20;1.73;;;23.10;80.60;;;;;;6111286;23;20407;-68
2023/08/26 02:00:16;;;;;;;2.07;1.87;;;23.00;81.40;;;;;;6110837;23;20410;-67
2023/08/26 02:02:44;;;;;;;1.90;1.47;;;23.10;81.00;;;;;;6115149;23;20387;-68
2023/08/26 02:05:13;;;;;;;2.97;2.57;;;23.00;81.40;;;;;;6114316;23;20836;-67
2023/08/26 02:07:42;;;;;;;2.33;2.03;;;23.10;81.10;;;;;;6114967;23;20492;-67
2023/08/26 02:10:11;;;;;;;2.10;1.80;;;23.10;80.70;;;;;;6268287;22;20666;-68
2023/08/26 02:12:39;;;;;;;3.13;2.50;;;23.10;82.30;;;;;;6269146;22;20397;-68
2023/08/26 02:15:09;;;;;;;2.30;2.10;;;23.10;80.90;;;;;;6113093;23;20442;-68
2023/08/26 02:17:38;;;;;;;2.63;2.43;;;23.10;80.90;;;;;;6115424;23;20414;-68
2023/08/26 02:20:09;;;;;;;2.73;2.43;;;23.00;80.60;;;;;;6113544;22;20780;-68
2023/08/26 02:22:37;;;;;;;2.30;2.10;;;23.00;80.50;;;;;;6115224;23;20375;-68
2023/08/26 02:25:09;;;;;;;3.20;2.30;;;23.00;80.70;;;;;;6116539;23;20751;-67
2023/08/26 02:27:37;;;;;;;3.10;2.10;;;23.00;79.50;;;;;;6119000;23;20418;-67
2023/08/26 02:30:07;;;;;;;2.77;1.97;;;23.00;80.80;;;;;;6114770;22;20444;-68
2023/08/26 02:32:37;;;;;;;2.80;2.23;;;23.00;79.70;;;;;;6115374;23;20378;-68
2023/08/26 02:35:06;;;;;;;1.63;1.53;;;23.00;80.20;;;;;;6113449;23;20472;-67
2023/08/26 02:37:35;;;;;;;2.00;1.60;;;23.00;80.30;;;;;;6091081;23;20947;-67
2023/08/26 02:40:05;;;;;;;4.53;1.90;;;23.00;80.10;;;;;;6114060;22;20439;-67
2023/08/26 02:42:34;;;;;;;2.80;2.20;;;23.00;80.40;;;;;;6114709;23;20399;-67
2023/08/26 02:45:04;;;;;;;2.20;1.90;;;23.00;80.40;;;;;;6113950;23;20457;-67
2023/08/26 02:47:32;;;;;;;2.13;1.73;;;23.00;80.20;;;;;;6115065;23;20419;-67
2023/08/26 02:50:03;;;;;;;3.13;2.50;;;23.00;79.90;;;;;;6114331;22;20777;-67
2023/08/26 02:52:31;;;;;;;2.60;2.23;;;23.00;80.30;;;;;;6115190;23;20477;-68
2023/08/26 02:55:00;;;;;;;2.00;1.80;;;23.00;79.80;;;;;;6113844;23;20922;-68
2023/08/26 02:57:28;;;;;;;3.03;2.20;;;23.00;80.10;;;;;;6114477;23;20438;-68
2023/08/26 02:59:56;;;;;;;2.20;2.00;;;23.00;79.80;;;;;;6113377;22;20435;-67
2023/08/26 03:02:25;;;;;;;3.00;2.03;;;23.00;80.00;;;;;;6112494;23;20464;-67
2023/08/26 03:04:54;;;;;;;2.17;1.80;;;23.00;79.60;;;;;;6110110;23;20438;-67
2023/08/26 03:07:24;;;;;;;2.20;1.93;;;22.90;79.50;;;;;;6113923;23;20449;-67
2023/08/26 03:09:53;;;;;;;2.60;2.13;;;22.90;79.70;;;;;;6111418;23;20517;-67
2023/08/26 03:12:22;;;;;;;2.10;1.80;;;22.90;79.80;;;;;;6112769;23;20421;-67
2023/08/26 03:14:52;;;;;;;2.57;2.37;;;22.90;79.30;;;;;;6137901;23;20524;-67
2023/08/26 03:17:21;;;;;;;2.20;1.70;;;22.90;79.60;;;;;;6142167;23;21049;-67
2023/08/26 03:19:50;;;;;;;3.40;2.17;;;22.90;78.90;;;;;;6141483;23;20437;-67
2023/08/26 03:22:18;;;;;;;1.77;1.40;;;22.90;79.30;;;;;;6142074;23;20401;-67
2023/08/26 03:24:48;;;;;;;2.30;2.10;;;22.90;78.80;;;;;;6141296;23;20433;-67
2023/08/26 03:27:16;;;;;;;2.60;1.67;;;22.90;79.20;;;;;;6143279;23;20406;-67
2023/08/26 03:29:44;;;;;;;1.50;1.40;;;22.90;78.50;;;;;;6141200;23;20453;-67
2023/08/26 03:32:13;;;;;;;2.20;1.80;;;22.90;79.10;;;;;;6142525;23;20390;-67
2023/08/26 03:34:43;;;;;;;2.03;1.70;;;22.90;79.40;;;;;;6140590;23;20429;-66
2023/08/26 03:37:11;;;;;;;1.83;1.73;;;22.90;78.90;;;;;;6141285;23;20942;-67
2023/08/26 03:39:41;;;;;;;2.63;1.70;;;22.90;79.20;;;;;;6141447;23;20955;-67
2023/08/26 03:42:11;;;;;;;1.83;1.40;;;22.90;78.70;;;;;;6142227;23;20743;-67
2023/08/26 03:44:39;;;;;;;2.20;1.83;;;22.90;79.00;;;;;;6140368;23;20808;-67
2023/08/26 03:47:07;;;;;;;3.03;2.10;;;22.90;78.50;;;;;;6141624;23;20421;-67
2023/08/26 03:49:36;;;;;;;2.43;2.03;;;22.90;79.10;;;;;;6141073;23;20518;-67
2023/08/26 03:52:05;;;;;;;3.03;2.10;;;22.90;79.00;;;;;;6139977;23;20407;-67
2023/08/26 03:54:33;;;;;;;1.90;1.70;;;22.90;78.70;;;;;;6140356;23;20437;-67
2023/08/26 03:57:02;;;;;;;1.90;1.77;;;22.90;78.60;;;;;;6141569;23;20782;-67
2023/08/26 03:59:32;;;;;;;2.00;1.80;;;22.90;78.70;;;;;;6139399;23;20516;-67
2023/08/26 04:02:00;;;;;;;1.77;1.53;;;22.80;78.50;;;;;;6141552;23;20474;-67
2023/08/26 04:04:29;;;;;;;2.70;2.00;;;22.80;78.40;;;;;;6139915;23;20495;-67
2023/08/26 04:06:57;;;;;;;2.20;1.93;;;22.80;78.00;;;;;;6140240;23;20928;-67
2023/08/26 04:09:26;;;;;;;3.37;1.97;;;22.80;78.40;;;;;;6140279;23;20434;-67
2023/08/26 04:11:56;;;;;;;2.23;2.03;;;22.80;78.60;;;;;;6140785;23;20402;-67
2023/08/26 04:14:24;;;;;;;1.77;1.50;;;22.80;78.60;;;;;;6139512;23;20429;-67
2023/08/26 04:16:54;;;;;;;2.50;1.57;;;22.80;78.60;;;;;;6141127;23;20957;-67
2023/08/26 04:19:23;;;;;;;1.80;1.50;;;22.80;78.60;;;;;;6140680;23;20433;-67
2023/08/26 04:21:51;;;;;;;2.80;1.97;;;22.80;78.00;;;;;;6140804;23;20408;-67
2023/08/26 04:24:20;;;;;;;2.00;1.60;;;22.80;78.30;;;;;;6142580;23;20433;-67
2023/08/26 04:26:48;;;;;;;1.90;1.50;;;22.80;78.00;;;;;;6143743;23;20418;-67
2023/08/26 04:29:17;;;;;;;2.80;2.10;;;22.80;78.10;;;;;;6141459;23;20525;-67
2023/08/26 04:31:47;;;;;;;2.83;1.57;;;22.80;78.20;;;;;;6142785;23;20447;-67
2023/08/26 04:34:17;;;;;;;2.17;1.50;;;22.80;78.30;;;;;;6140118;23;20425;-67
2023/08/26 04:36:45;;;;;;;2.03;1.70;;;22.80;77.40;;;;;;6141263;23;20516;-67
2023/08/26 04:39:13;;;;;;;1.60;1.50;;;22.70;77.50;;;;;;6140917;23;20432;-67
2023/08/26 04:41:43;;;;;;;2.80;2.07;;;22.70;77.80;;;;;;6141931;23;20766;-67
2023/08/26 04:44:12;;;;;;;1.90;1.70;;;22.70;77.50;;;;;;6138617;23;20985;-67
2023/08/26 04:46:42;;;;;;;2.60;1.80;;;22.70;77.10;;;;;;6141499;23;20406;-67
2023/08/26 04:49:10;;;;;;;4.10;1.67;;;22.70;76.90;;;;;;6140169;23;20807;-67
2023/08/26 04:51:40;;;;;;;2.57;1.90;;;22.70;76.30;;;;;;6139958;23;20926;-67
2023/08/26 04:54:10;;;;;;;1.93;1.70;;;22.70;76.90;;;;;;6139981;23;20487;-67
2023/08/26 04:56:38;;;;;;;2.40;1.80;;;22.70;76.50;;;;;;6139803;23;20449;-67
2023/08/26 04:59:06;;;;;;;2.70;2.17;;;22.70;76.80;;;;;;6138848;23;20437;-68
2023/08/26 05:01:35;;;;;;;1.70;1.33;;;22.60;76.10;;;;;;6140635;23;20467;-67
2023/08/26 05:04:03;;;;;;;3.67;2.10;;;22.60;76.30;;;;;;6139560;23;20442;-68
2023/08/26 05:06:31;;;;;;;2.20;1.53;;;22.60;76.40;;;;;;6139676;23;20903;-68
2023/08/26 05:09:01;;;;;;;2.03;1.60;;;22.60;76.90;;;;;;6142287;23;20453;-67
2023/08/26 05:11:30;;;;;;;2.17;1.97;;;22.60;75.70;;;;;;6141521;23;20385;-68
2023/08/26 05:13:58;;;;;;;1.90;1.30;;;22.60;76.00;;;;;;6116024;23;20401;-68
2023/08/26 05:16:27;;;;;;;1.60;1.20;;;22.60;76.70;;;;;;6140997;23;20416;-67
2023/08/26 05:18:56;;;;;;;2.20;1.80;;;22.60;76.10;;;;;;6140305;23;20434;-67
2023/08/26 05:21:24;;;;;;;1.90;1.37;;;22.60;75.60;;;;;;6140704;23;20385;-67
2023/08/26 05:23:52;;;;;;;1.97;1.30;;;22.60;76.20;;;;;;6140992;23;20459;-69
2023/08/26 05:26:24;;;;;;;2.70;1.80;;;22.60;76.00;;;;;;6141773;23;20476;-72
2023/08/26 05:28:52;;;;;;;2.37;1.40;;;22.60;76.10;;;;;;6140728;23;20885;-72
2023/08/26 05:31:23;;;;;;;1.93;1.63;;;22.60;75.50;;;;;;6141065;23;20428;-72
2023/08/26 05:33:51;;;;;;;1.70;1.47;;;22.60;76.00;;;;;;6140961;23;20779;-72
2023/08/26 05:36:20;;;;;;;1.67;1.43;;;22.60;75.40;;;;;;6140946;23;20402;-72
2023/08/26 05:38:48;;;;;;;1.70;1.37;;;22.60;75.70;;;;;;6140322;23;20923;-72
2023/08/26 05:41:17;;;;;;;1.97;1.70;;;22.50;74.70;;;;;;6141566;23;20721;-72
2023/08/26 05:43:47;;;;;;;2.60;1.70;;;22.50;75.00;;;;;;6140120;23;20488;-72
2023/08/26 05:46:16;;;;;;;2.13;1.50;;;22.50;74.80;;;;;;6141685;23;20384;-72
2023/08/26 05:48:45;;;;;;;1.70;1.20;;;22.50;74.90;;;;;;6141331;23;20410;-72
2023/08/26 05:51:13;;;;;;;2.23;1.57;;;22.50;75.00;;;;;;6140505;23;20398;-72
2023/08/26 05:53:41;;;;;;;4.50;1.57;;;22.50;74.90;;;;;;6139957;23;20849;-72
2023/08/26 05:56:10;;;;;;;1.93;1.27;;;22.50;74.70;;;;;;6141089;23;20433;-72
2023/08/26 05:58:39;;;;;;;2.07;1.30;;;22.50;74.80;;;;;;6141100;23;20425;-72
2023/08/26 06:01:08;;;;;;;1.77;1.30;;;22.50;74.60;;;;;;6141471;23;20422;-72
2023/08/26 06:03:37;;;;;;;2.47;1.67;;;22.50;73.50;;;;;;6142294;23;20438;-72
2023/08/26 06:06:05;;;;;;;2.00;1.30;;;22.50;74.30;;;;;;6140597;23;20386;-72
2023/08/26 06:08:34;;;;;;;1.83;1.23;;;22.50;74.70;;;;;;6116594;23;20425;-72
2023/08/26 06:11:02;;;;;;;1.80;1.40;;;22.40;74.40;;;;;;6141862;23;20388;-72
2023/08/26 06:13:30;;;;;;;2.00;1.23;;;22.40;73.50;;;;;;6139897;23;20390;-72
2023/08/26 06:15:59;;;;;;;1.80;1.20;;;22.40;74.20;;;;;;6140990;23;20378;-72
2023/08/26 06:18:30;;;;;;;1.97;1.40;;;22.40;74.20;;;;;;6140666;23;20520;-72
2023/08/26 06:20:58;;;;;;;2.87;1.40;;;22.40;74.30;;;;;;6140536;23;20385;-72
2023/08/26 06:23:27;;;;;;;1.73;1.50;;;22.40;74.10;;;;;;6139509;23;20434;-72
2023/08/26 06:25:56;;;;;;;1.90;1.50;;;22.40;75.30;;;;;;6142974;23;20738;-72
2023/08/26 06:28:26;;;;;;;2.20;2.00;;;22.40;74.10;;;;;;6141138;23;20964;-72
2023/08/26 06:30:58;;;;;;;2.30;1.33;;;22.40;73.60;;;;;;6140236;23;20404;-72
2023/08/26 06:33:31;;;;;;;3.57;1.47;;;22.40;73.30;;;;;;6140075;23;20471;-72
2023/08/26 06:35:59;;;;;;;2.13;1.40;;;22.40;74.10;;;;;;6140280;23;20897;-72
2023/08/26 06:38:28;;;;;;;1.40;1.20;;;22.40;73.60;;;;;;6140606;23;21341;-72
2023/08/26 06:40:56;;;;;;;1.40;1.10;;;22.40;74.00;;;;;;6141143;23;20382;-72
2023/08/26 06:43:25;;;;;;;1.77;1.27;;;22.40;73.50;;;;;;6139534;23;20898;-72
2023/08/26 06:45:55;;;;;;;1.60;1.40;;;22.30;73.60;;;;;;6141455;23;20409;-72
2023/08/26 06:48:23;;;;;;;2.60;1.80;;;22.40;73.90;;;;;;6139775;23;20442;-72
2023/08/26 06:50:53;;;;;;;1.87;1.30;;;22.40;73.90;;;;;;6140970;23;20461;-72
2023/08/26 06:53:22;;;;;;;1.80;1.43;;;22.40;73.10;;;;;;6140311;23;20396;-72
2023/08/26 06:55:52;;;;;;;3.77;1.57;;;22.40;73.30;;;;;;6141247;23;20451;-72
2023/08/26 06:58:23;;;;;;;1.73;1.27;;;22.40;73.50;;;;;;6139943;23;20464;-72
2023/08/26 07:00:53;;;;;;;1.50;1.40;;;22.40;73.70;;;;;;6141529;23;20398;-72
2023/08/26 07:03:24;;;;;;;1.07;0.80;;;22.40;74.00;;;;;;6139865;23;20394;-72
2023/08/26 07:05:54;;;;;;;1.43;1.33;;;22.40;74.10;;;;;;6141860;23;20380;-72
2023/08/26 07:08:23;;;;;;;1.83;1.30;;;22.40;74.10;;;;;;6139173;23;20433;-72
2023/08/26 07:10:51;;;;;;;1.90;1.20;;;22.40;74.80;;;;;;6141096;23;20393;-72
2023/08/26 07:13:19;;;;;;;1.47;1.10;;;22.40;75.40;;;;;;6139970;23;20885;-72
2023/08/26 07:15:47;;;;;;;1.73;1.40;;;22.40;75.10;;;;;;6142582;23;20496;-72
2023/08/26 07:18:16;;;;;;;1.40;1.27;;;22.40;75.20;;;;;;6140308;23;20454;-72
2023/08/26 07:20:47;;;;;;;1.90;1.30;;;22.40;75.50;;;;;;6139970;23;20684;-72
2023/08/26 07:23:17;;;;;;;1.63;1.20;;;22.40;75.50;;;;;;6141576;23;20979;-72
2023/08/26 07:25:45;;;;;;;1.73;1.40;;;22.40;75.20;;;;;;6140770;23;20405;-72
2023/08/26 07:28:14;;;;;;;1.70;1.40;;;22.40;75.40;;;;;;6141235;23;20444;-72
2023/08/26 07:30:42;;;;;;;3.70;1.40;;;22.40;75.10;;;;;;6140496;23;20413;-72
2023/08/26 07:33:10;;;;;;;2.20;1.20;;;22.40;75.10;;;;;;6140089;23;20390;-72
2023/08/26 07:35:39;;;;;;;2.20;1.40;;;22.40;74.80;;;;;;6140010;23;20452;-72
2023/08/26 07:38:07;;;;;;;2.17;1.10;;;22.40;74.80;;;;;;6140609;23;20476;-72
2023/08/26 07:40:37;;;;;;;1.73;1.33;;;22.40;74.50;;;;;;6143265;23;20386;-72
2023/08/26 07:43:05;;;;;;;1.20;1.00;;;22.40;74.10;;;;;;6139398;23;20474;-72
2023/08/26 07:45:33;;;;;;;1.87;1.23;;;22.40;74.10;;;;;;6140389;23;20389;-72
2023/08/26 07:48:02;;;;;;;1.30;1.17;;;22.40;73.50;;;;;;6141205;23;20428;-72
2023/08/26 07:50:33;;;;;;;1.50;1.10;;;22.40;74.00;;;;;;6140790;23;20772;-72
2023/08/26 07:53:01;;;;;;;2.10;1.40;;;22.40;74.10;;;;;;6141819;23;20443;-72
2023/08/26 07:55:30;;;;;;;1.63;1.30;;;22.40;74.10;;;;;;6143027;23;20389;-72
2023/08/26 07:57:59;;;;;;;1.30;1.03;;;22.40;74.40;;;;;;6141399;23;20463;-72
2023/08/26 08:00:28;;;;;;;1.53;1.10;;;22.40;74.40;;;;;;6141329;23;20470;-72
2023/08/26 08:02:56;;;;;;;1.70;1.40;;;22.40;74.20;;;;;;6142195;23;20409;-72
2023/08/26 08:05:25;;;;;;;1.80;1.17;;;22.40;74.40;;;;;;6141644;23;20397;-72
2023/08/26 08:07:53;;;;;;;2.13;1.03;;;22.40;74.20;;;;;;6139263;23;20514;-72
2023/08/26 08:10:22;;;;;;;4.40;1.70;;;22.40;66.20;;;;;;6138833;23;20435;-72
2023/08/26 08:12:50;;;;;;;2.63;1.10;;;22.30;66.00;;;;;;6139682;23;20493;-73
2023/08/26 08:15:20;;;;;;;2.80;1.27;;;22.30;66.10;;;;;;6138351;23;20843;-72
2023/08/26 08:17:48;;;;;;;3.03;1.20;;;22.40;68.50;;;;;;6140960;23;20410;-73
2023/08/26 08:20:19;;;;;;;1.60;1.17;;;22.40;69.20;;;;;;6137723;23;20475;-73
2023/08/26 08:22:47;;;;;;;1.30;0.80;;;22.40;69.70;;;;;;6140762;23;20401;-71
2023/08/26 08:25:16;;;;;;;1.43;1.00;;;22.40;70.40;;;;;;6140243;23;20429;-73
2023/08/26 08:27:44;;;;;;;2.27;1.10;;;22.40;70.80;;;;;;6140850;23;20471;-68
2023/08/26 08:30:12;;;;;;;2.17;1.10;;;22.40;71.00;;;;;;6109052;23;20415;-68
2023/08/26 08:32:42;;;;;;;1.80;1.10;;;22.40;71.20;;;;;;6111333;23;20393;-68
2023/08/26 08:35:11;;;;;;;1.40;1.10;;;22.40;71.50;;;;;;6262654;22;20434;-69
2023/08/26 08:37:40;;;;;;;3.17;1.37;;;22.40;71.70;;;;;;6266941;22;20725;-69
2023/08/26 08:40:09;;;;;;;1.40;0.97;;;22.40;71.60;;;;;;6263926;22;20497;-68
2023/08/26 08:42:41;;;;;;;1.40;1.00;;;22.40;71.90;;;;;;6266335;22;20375;-68
2023/08/26 08:45:11;;;;;;;1.50;1.10;;;22.40;72.10;;;;;;6265987;22;20444;-69
2023/08/26 08:47:43;;;;;;;2.10;1.17;;;22.40;72.00;;;;;;6265189;22;20406;-72
2023/08/26 08:50:13;;;;;;;1.67;1.33;;;22.40;71.90;;;;;;6266489;22;20430;-72
2023/08/26 08:52:44;;;;;;;1.50;1.20;;;22.40;72.10;;;;;;6268637;22;20386;-72
2023/08/26 08:55:12;;;;;;;1.67;1.20;;;22.40;72.10;;;;;;6112889;23;20445;-72
2023/08/26 08:57:41;;;;;;;2.20;0.87;;;22.40;72.20;;;;;;6113572;23;20414;-73
2023/08/26 09:00:10;;;;;;;1.47;1.23;;;22.40;70.60;;;;;;6112695;23;20478;-72
2023/08/26 09:02:42;;;;;;;1.97;1.23;;;22.40;71.80;;;;;;6111919;23;20721;-72
2023/08/26 09:05:11;;;;;;;2.20;1.10;;;22.40;71.60;;;;;;6110559;22;20539;-72
2023/08/26 09:07:44;;;;;;;1.50;1.30;;;22.40;71.80;;;;;;6114060;23;20418;-72
2023/08/26 09:10:12;;;;;;;1.63;0.90;;;22.40;71.80;;;;;;6111033;23;20459;-72
2023/08/26 09:12:44;;;;;;;3.17;1.00;;;22.40;71.90;;;;;;6110535;23;20486;-72
2023/08/26 09:15:12;;;;;;;1.70;1.10;;;22.40;68.90;;;;;;6111628;23;20407;-72
2023/08/26 09:17:46;;;;;;;1.20;0.90;;;22.40;71.30;;;;;;6110553;23;20465;-72
2023/08/26 09:20:14;;;;;;;2.60;1.10;;;22.40;71.20;;;;;;6111213;23;20445;-71
2023/08/26 09:22:43;;;;;;;1.80;1.10;;;22.40;71.50;;;;;;6111143;23;20394;-73
2023/08/26 09:25:11;;;;;;;2.47;1.43;;;22.40;71.60;;;;;;6263048;22;20438;-72
2023/08/26 09:27:43;;;;;;;1.60;0.90;;;22.40;71.80;;;;;;6266027;22;20471;-73
2023/08/26 09:30:18;;;;;;;1.53;1.10;;;22.40;71.10;;;;;;6264193;22;20922;-72
2023/08/26 09:32:52;;;;;;;2.13;1.57;;;22.40;68.90;;;;;;6265246;22;20388;-72
2023/08/26 09:35:21;;;;;;;1.23;1.00;;;22.40;70.90;;;;;;6109556;23;20987;-72
2023/08/26 09:38:09;;;;;;;1.90;1.23;;;22.40;71.10;;;;;;6110794;23;20449;-73
2023/08/26 09:40:39;;;;;;;2.90;1.00;;;22.40;71.10;;;;;;6111633;23;20389;-72
2023/08/26 09:43:09;;;;;;;2.03;1.07;;;22.40;69.10;;;;;;6110735;23;20159;-72
2023/08/26 09:45:38;;;;;;;1.60;1.13;;;22.40;69.50;;;;;;6111721;23;20395;-72
2023/08/26 09:48:08;;;;;;;1.43;1.00;;;22.40;70.30;;;;;;6111110;23;20460;-72
2023/08/26 09:50:36;;;;;;;2.53;1.10;;;22.40;70.50;;;;;;6109800;23;20419;-72
2023/08/26 09:53:05;;;;;;;1.20;0.90;;;22.40;70.10;;;;;;6109994;23;20807;-72
2023/08/26 09:55:33;;;;;;;1.50;1.20;;;22.40;70.40;;;;;;6110623;23;20399;-72
2023/08/26 09:58:01;;;;;;;1.67;1.20;;;22.40;70.60;;;;;;6111108;23;20497;-73
2023/08/26 10:00:31;;;;;;;1.67;1.00;;;22.40;70.00;;;;;;6109867;23;20471;-72
2023/08/26 10:03:02;;;;;;;1.33;0.93;;;22.40;70.80;;;;;;6110018;23;20724;-73
2023/08/26 10:05:36;;;;;;;2.07;0.90;;;22.40;70.50;;;;;;6085492;23;20391;-73
2023/08/26 10:08:09;;;;;;;1.90;1.00;;;22.40;70.00;;;;;;6109825;23;20405;-72
2023/08/26 10:10:50;;;;;;;3.03;1.23;;;22.40;70.40;;;;;;6110676;23;20162;-73
2023/08/26 10:13:23;;;;;;;1.50;0.90;;;22.40;70.50;;;;;;6109681;23;20442;-71
2023/08/26 10:15:53;;;;;;;1.40;0.97;;;22.40;70.30;;;;;;6110741;23;20482;-73
2023/08/26 10:18:31;;;;;;;2.80;1.30;;;22.40;70.50;;;;;;6086636;23;20517;-72
2023/08/26 10:21:03;;;;;;;2.17;0.90;;;22.30;70.50;;;;;;6111979;23;20453;-72
2023/08/26 10:23:33;;;;;;;1.67;0.87;;;22.30;70.40;;;;;;6111409;23;20414;-72
2023/08/26 10:26:01;;;;;;;1.40;0.80;;;22.30;70.90;;;;;;6112321;23;20394;-72
2023/08/26 10:28:32;;;;;;;1.20;1.00;;;22.30;70.80;;;;;;6108391;23;20488;-72
2023/08/26 10:31:00;;;;;;;1.50;0.80;;;22.30;70.80;;;;;;6087502;23;20406;-71
2023/08/26 10:33:29;;;;;;;1.83;0.90;;;22.30;71.00;;;;;;6111522;23;20498;-72
2023/08/26 10:36:14;;;;;;;1.80;1.13;;;22.30;71.10;;;;;;6111265;23;20414;-73
2023/08/26 10:38:55;;;;;;;1.90;1.10;;;22.30;70.80;;;;;;6111843;23;20441;-72
2023/08/26 10:41:23;;;;;;;2.00;1.17;;;22.30;71.10;;;;;;6112694;23;20454;-72
2023/08/26 10:43:53;;;;;;;2.13;1.00;;;22.30;71.00;;;;;;6114020;23;20730;-72
2023/08/26 10:46:34;;;;;;;1.67;1.10;;;22.30;71.00;;;;;;6112336;23;20476;-72
2023/08/26 10:49:10;;;;;;;1.67;0.90;;;22.30;71.20;;;;;;6112520;23;20430;-72
2023/08/26 10:52:07;;;;;;;1.90;1.00;;;22.30;71.50;;;;;;6113061;23;20395;-66
2023/08/26 10:54:36;;;;;;;1.70;1.10;;;22.30;70.70;;;;;;6111685;23;20513;-67
2023/08/26 10:57:07;;;;;;;1.87;1.03;;;22.30;71.10;;;;;;6108221;23;20488;-66
2023/08/26 10:59:36;;;;;;;1.60;1.00;;;22.30;71.10;;;;;;6110867;23;20434;-67
2023/08/26 11:02:08;;;;;;;1.50;0.90;;;22.30;71.10;;;;;;6111684;23;20656;-66
2023/08/26 11:04:41;;;;;;;1.30;1.07;;;22.30;71.10;;;;;;6110673;23;20775;-67
2023/08/26 11:07:15;;;;;;;1.30;0.90;;;22.30;71.40;;;;;;6110270;23;20421;-67
2023/08/26 11:09:43;;;;;;;1.70;1.07;;;22.30;71.40;;;;;;6111969;23;20426;-67
2023/08/26 11:12:25;;;;;;;1.90;1.20;;;22.30;71.50;;;;;;6111942;23;20470;-67
2023/08/26 11:14:54;;;;;;;1.53;1.10;;;22.30;70.70;;;;;;6110780;23;20441;-67
2023/08/26 11:17:23;;;;;;;1.13;0.70;;;22.30;71.50;;;;;;6112548;23;20764;-72
2023/08/26 11:19:51;;;;;;;1.30;0.70;;;22.30;71.60;;;;;;6086778;23;20442;-72
2023/08/26 11:22:25;;;;;;;1.17;0.70;;;22.30;71.50;;;;;;6111413;23;20683;-72
2023/08/26 11:24:54;;;;;;;2.53;0.90;;;22.30;71.30;;;;;;6110519;23;20433;-72
2023/08/26 11:27:22;;;;;;;1.57;0.80;;;22.30;71.20;;;;;;6112791;23;20421;-72
2023/08/26 11:29:50;;;;;;;1.37;0.60;;;22.30;70.80;;;;;;6110969;23;20434;-65
2023/08/26 11:32:19;;;;;;;1.87;1.10;;;22.30;71.30;;;;;;6112521;23;20386;-67
2023/08/26 11:34:47;;;;;;;1.40;1.00;;;22.30;71.00;;;;;;6111767;23;20755;-67
2023/08/26 11:37:20;;;;;;;1.10;0.60;;;22.30;70.80;;;;;;6111503;23;20422;-67
2023/08/26 11:39:49;;;;;;;1.30;0.70;;;22.30;71.00;;;;;;6113801;23;20560;-67
2023/08/26 11:42:17;;;;;;;1.43;1.10;;;22.30;70.60;;;;;;6112493;23;20903;-67
2023/08/26 11:44:46;;;;;;;1.07;0.80;;;22.30;71.00;;;;;;6111523;23;20815;-67
2023/08/26 11:47:15;;;;;;;1.60;0.80;;;22.30;70.90;;;;;;6112863;23;20942;-67
2023/08/26 11:49:44;;;;;;;1.43;0.90;;;22.30;71.00;;;;;;6087458;23;20491;-67
2023/08/26 11:52:13;;;;;;;2.30;1.03;;;22.30;70.60;;;;;;6113138;23;20394;-66
2023/08/26 11:54:42;;;;;;;1.20;0.70;;;22.30;71.00;;;;;;6112263;23;20854;-66
2023/08/26 11:57:13;;;;;;;1.40;0.80;;;22.30;71.00;;;;;;6113345;23;20459;-66
2023/08/26 11:59:43;;;;;;;1.23;0.90;;;22.30;71.00;;;;;;6111428;23;20454;-66
2023/08/26 12:02:20;;;;;;;0.90;0.70;;;22.30;71.20;;;;;;6112668;23;20514;-67
2023/08/26 12:04:55;;;;;;;3.00;1.10;;;22.30;71.30;;;;;;6111049;23;20437;-67
2023/08/26 12:07:23;;;;;;;1.60;0.80;;;22.30;71.30;;;;;;6110655;23;20446;-66
2023/08/26 12:09:54;;;;;;;1.60;0.90;;;22.30;71.30;;;;;;6113261;23;20434;-66
2023/08/26 12:12:23;;;;;;;1.67;1.00;;;22.30;71.40;;;;;;6112046;23;20371;-66
2023/08/26 12:14:52;;;;;;;2.23;1.10;;;22.30;71.40;;;;;;6111029;23;20720;-66
2023/08/26 12:17:20;;;;;;;1.03;0.60;;;22.30;71.10;;;;;;6112261;23;20410;-66
2023/08/26 12:19:48;;;;;;;1.00;0.60;;;22.30;71.40;;;;;;6111180;23;20933;-66
2023/08/26 12:22:16;;;;;;;0.90;0.70;;;22.30;71.50;;;;;;6110690;23;20518;-66
2023/08/26 12:24:45;;;;;;;0.90;0.63;;;22.30;70.70;;;;;;6111921;23;20434;-66
2023/08/26 12:27:14;;;;;;;1.40;1.07;;;22.30;71.40;;;;;;6112405;23;20415;-67
2023/08/26 12:29:43;;;;;;;1.57;0.80;;;22.30;71.60;;;;;;6111473;23;20462;-66
2023/08/26 12:32:11;;;;;;;1.20;0.80;;;22.30;71.50;;;;;;6111812;23;20440;-66
2023/08/26 12:34:40;;;;;;;1.53;1.00;;;22.30;71.50;;;;;;6111156;23;20445;-66
2023/08/26 12:37:08;;;;;;;2.00;0.60;;;22.30;72.80;;;;;;6111792;23;20530;-66
2023/08/26 12:39:36;;;;;;;1.63;0.80;;;22.30;71.40;;;;;;6111429;23;20434;-67
2023/08/26 12:42:05;;;;;;;1.00;0.70;;;22.30;71.60;;;;;;6111775;23;20430;-66
2023/08/26 12:44:36;;;;;;;1.17;0.83;;;22.30;71.60;;;;;;6110724;23;20434;-66
2023/08/26 12:47:05;;;;;;;1.50;0.70;;;22.30;71.60;;;;;;6112879;23;20905;-66
2023/08/26 12:49:33;;;;;;;1.40;0.80;;;22.30;71.50;;;;;;6110633;23;20449;-67
2023/08/26 12:52:01;;;;;;;2.80;1.00;;;22.30;71.60;;;;;;6109605;23;20401;-66
2023/08/26 12:54:30;;;;;;;1.20;0.93;;;22.30;71.70;;;;;;6110566;23;20814;-66
2023/08/26 12:56:58;;;;;;;1.00;0.70;;;22.30;71.70;;;;;;6112172;23;20449;-66
2023/08/26 12:59:27;;;;;;;1.47;1.00;;;22.30;71.00;;;;;;6110741;23;20431;-66